Terminal Aerodrome Forecast
Issued by NWS Cleveland, OH

Home | Current Version | Previous Version | Graphics & Text | Print | Product List | Glossary On
Versions: 1 2 3 4 5 6 7 8 9 10 11 12 13 14 15 16 17 18 19 20 21 22
000
FTUS41 KCLE 151900 AAA
TAFTOL
TAF AMD
KTOL 151959Z 1520/1618 17006KT P6SM BKN200
     FM160300 13006KT 4SM -RA BR SCT012 OVC025
     FM160700 15008KT 2SM -RA BR OVC008
     FM161500 23008KT 3SM -RA BR OVC008=

USA.gov is the U.S. government's official web portal to all federal, state and local government web resources and services.